sensor_id;sensor_type;location;lat;lon;timestamp;pressure;altitude;pressure_sealevel;temperature;humidity
33554;BME280;19885;42.208;24.952;2023-06-26T00:01:51;99369.00;;;23.93;86.79
33554;BME280;19885;42.208;24.952;2023-06-26T00:04:16;99359.53;;;24.03;86.01
33554;BME280;19885;42.208;24.952;2023-06-26T00:06:42;99363.66;;;23.93;85.79
33554;BME280;19885;42.208;24.952;2023-06-26T00:09:07;99354.41;;;23.85;86.23
33554;BME280;19885;42.208;24.952;2023-06-26T00:11:33;99350.72;;;23.87;86.46
33554;BME280;19885;42.208;24.952;2023-06-26T00:13:59;99353.00;;;23.93;85.79
33554;BME280;19885;42.208;24.952;2023-06-26T00:16:25;99355.16;;;23.71;86.53
33554;BME280;19885;42.208;24.952;2023-06-26T00:18:55;99352.59;;;24.01;85.09
33554;BME280;19885;42.208;24.952;2023-06-26T00:21:21;99350.28;;;24.10;84.65
33554;BME280;19885;42.208;24.952;2023-06-26T00:23:46;99348.47;;;23.95;84.77
33554;BME280;19885;42.208;24.952;2023-06-26T00:26:13;99346.53;;;24.15;83.71
33554;BME280;19885;42.208;24.952;2023-06-26T00:28:39;99349.72;;;24.05;83.84
33554;BME280;19885;42.208;24.952;2023-06-26T00:31:04;99346.44;;;23.52;84.96
33554;BME280;19885;42.208;24.952;2023-06-26T00:33:29;99342.84;;;23.53;86.22
33554;BME280;19885;42.208;24.952;2023-06-26T00:35:55;99343.97;;;23.32;87.15
33554;BME280;19885;42.208;24.952;2023-06-26T00:38:22;99348.81;;;22.38;92.13
33554;BME280;19885;42.208;24.952;2023-06-26T00:40:50;99347.56;;;22.28;92.32
33554;BME280;19885;42.208;24.952;2023-06-26T00:43:16;99342.84;;;22.16;94.01
33554;BME280;19885;42.208;24.952;2023-06-26T00:45:43;99352.81;;;22.11;93.44
33554;BME280;19885;42.208;24.952;2023-06-26T00:48:10;99344.06;;;22.28;94.08
33554;BME280;19885;42.208;24.952;2023-06-26T00:50:37;99340.78;;;22.40;92.34
33554;BME280;19885;42.208;24.952;2023-06-26T00:53:02;99337.09;;;22.42;92.79
33554;BME280;19885;42.208;24.952;2023-06-26T00:55:27;99342.50;;;22.41;93.27
33554;BME280;19885;42.208;24.952;2023-06-26T00:57:54;99338.72;;;22.98;89.70
33554;BME280;19885;42.208;24.952;2023-06-26T01:00:20;99335.47;;;23.25;89.87
33554;BME280;19885;42.208;24.952;2023-06-26T01:02:45;99337.16;;;23.44;88.02
33554;BME280;19885;42.208;24.952;2023-06-26T01:05:11;99337.56;;;23.36;86.57
33554;BME280;19885;42.208;24.952;2023-06-26T01:07:37;99333.94;;;23.04;89.00
33554;BME280;19885;42.208;24.952;2023-06-26T01:10:04;99331.97;;;22.39;92.85
33554;BME280;19885;42.208;24.952;2023-06-26T01:12:30;99335.84;;;22.85;92.76
33554;BME280;19885;42.208;24.952;2023-06-26T01:14:59;99326.00;;;23.20;89.51
33554;BME280;19885;42.208;24.952;2023-06-26T01:17:25;99330.91;;;22.78;90.08
33554;BME280;19885;42.208;24.952;2023-06-26T01:19:52;99327.88;;;22.32;93.96
33554;BME280;19885;42.208;24.952;2023-06-26T01:22:27;99327.56;;;22.21;95.41
33554;BME280;19885;42.208;24.952;2023-06-26T01:27:28;99332.50;;;22.64;94.33
33554;BME280;19885;42.208;24.952;2023-06-26T01:29:55;99323.09;;;22.75;93.08
33554;BME280;19885;42.208;24.952;2023-06-26T01:32:21;99327.94;;;23.01;92.26
33554;BME280;19885;42.208;24.952;2023-06-26T01:34:49;99314.69;;;23.16;90.86
33554;BME280;19885;42.208;24.952;2023-06-26T01:37:14;99313.66;;;23.19;91.43
33554;BME280;19885;42.208;24.952;2023-06-26T01:39:39;99317.53;;;23.29;91.08
33554;BME280;19885;42.208;24.952;2023-06-26T01:42:05;99315.56;;;23.32;90.02
33554;BME280;19885;42.208;24.952;2023-06-26T01:44:33;99318.19;;;23.34;89.57
33554;BME280;19885;42.208;24.952;2023-06-26T01:47:02;99320.13;;;23.30;88.78
33554;BME280;19885;42.208;24.952;2023-06-26T01:52:17;99318.06;;;23.03;90.22
33554;BME280;19885;42.208;24.952;2023-06-26T01:55:31;99313.91;;;22.46;93.57
33554;BME280;19885;42.208;24.952;2023-06-26T01:57:33;99315.06;;;22.40;93.63
33554;BME280;19885;42.208;24.952;2023-06-26T02:00:03;99305.53;;;22.19;94.30
33554;BME280;19885;42.208;24.952;2023-06-26T02:02:29;99315.53;;;22.14;95.05
33554;BME280;19885;42.208;24.952;2023-06-26T02:04:54;99317.56;;;22.62;94.13
33554;BME280;19885;42.208;24.952;2023-06-26T02:07:19;99321.94;;;22.44;94.09
33554;BME280;19885;42.208;24.952;2023-06-26T02:09:45;99329.00;;;22.45;93.53
33554;BME280;19885;42.208;24.952;2023-06-26T02:12:10;99322.16;;;21.87;98.11
33554;BME280;19885;42.208;24.952;2023-06-26T02:14:38;99317.75;;;22.05;97.82
33554;BME280;19885;42.208;24.952;2023-06-26T02:17:03;99312.53;;;22.03;97.34
33554;BME280;19885;42.208;24.952;2023-06-26T02:19:29;99319.25;;;22.46;95.42
33554;BME280;19885;42.208;24.952;2023-06-26T02:21:54;99322.47;;;22.69;94.29
33554;BME280;19885;42.208;24.952;2023-06-26T02:24:19;99322.63;;;22.84;92.85
33554;BME280;19885;42.208;24.952;2023-06-26T02:26:45;99330.75;;;22.81;93.40
33554;BME280;19885;42.208;24.952;2023-06-26T02:29:15;99328.72;;;22.86;92.39
33554;BME280;19885;42.208;24.952;2023-06-26T02:31:40;99319.81;;;22.87;92.99
33554;BME280;19885;42.208;24.952;2023-06-26T02:34:06;99321.56;;;21.99;96.41
33554;BME280;19885;42.208;24.952;2023-06-26T02:36:31;99319.59;;;22.21;96.58
33554;BME280;19885;42.208;24.952;2023-06-26T02:38:59;99321.25;;;22.58;93.82
33554;BME280;19885;42.208;24.952;2023-06-26T02:41:26;99317.16;;;22.69;92.50
33554;BME280;19885;42.208;24.952;2023-06-26T02:43:51;99321.06;;;22.62;92.56
33554;BME280;19885;42.208;24.952;2023-06-26T02:46:17;99323.34;;;22.51;93.50
33554;BME280;19885;42.208;24.952;2023-06-26T02:48:44;99325.97;;;22.53;93.40
33554;BME280;19885;42.208;24.952;2023-06-26T02:51:09;99323.31;;;22.53;93.68
33554;BME280;19885;42.208;24.952;2023-06-26T02:53:35;99326.25;;;22.47;93.98
33554;BME280;19885;42.208;24.952;2023-06-26T02:56:00;99319.16;;;22.47;93.67
33554;BME280;19885;42.208;24.952;2023-06-26T02:58:25;99314.47;;;22.52;93.67
33554;BME280;19885;42.208;24.952;2023-06-26T03:00:51;99309.66;;;22.60;93.55
33554;BME280;19885;42.208;24.952;2023-06-26T03:03:19;99317.50;;;22.45;93.57
33554;BME280;19885;42.208;24.952;2023-06-26T03:05:47;99314.38;;;22.37;93.82
33554;BME280;19885;42.208;24.952;2023-06-26T03:08:12;99323.44;;;22.33;93.80
33554;BME280;19885;42.208;24.952;2023-06-26T03:10:40;99326.94;;;22.16;94.59
33554;BME280;19885;42.208;24.952;2023-06-26T03:13:05;99322.84;;;22.09;95.78
33554;BME280;19885;42.208;24.952;2023-06-26T03:15:33;99325.38;;;22.12;95.99
33554;BME280;19885;42.208;24.952;2023-06-26T03:17:58;99324.28;;;22.16;95.69
33554;BME280;19885;42.208;24.952;2023-06-26T03:20:26;99323.19;;;22.20;96.03
33554;BME280;19885;42.208;24.952;2023-06-26T03:22:51;99331.09;;;21.66;98.54
33554;BME280;19885;42.208;24.952;2023-06-26T03:25:18;99330.06;;;21.31;100.00
33554;BME280;19885;42.208;24.952;2023-06-26T03:27:46;99339.84;;;21.68;100.00
33554;BME280;19885;42.208;24.952;2023-06-26T03:30:14;99343.41;;;21.29;100.00
33554;BME280;19885;42.208;24.952;2023-06-26T03:32:39;99346.75;;;21.14;100.00
33554;BME280;19885;42.208;24.952;2023-06-26T03:35:07;99341.81;;;21.25;100.00
33554;BME280;19885;42.208;24.952;2023-06-26T03:37:32;99344.09;;;21.14;100.00
33554;BME280;19885;42.208;24.952;2023-06-26T03:40:00;99340.53;;;21.34;100.00
33554;BME280;19885;42.208;24.952;2023-06-26T03:42:25;99337.81;;;21.36;100.00
33554;BME280;19885;42.208;24.952;2023-06-26T03:44:53;99342.84;;;21.42;100.00
33554;BME280;19885;42.208;24.952;2023-06-26T03:47:18;99338.03;;;21.31;100.00
33554;BME280;19885;42.208;24.952;2023-06-26T03:49:46;99336.47;;;21.46;100.00
33554;BME280;19885;42.208;24.952;2023-06-26T03:52:12;99331.22;;;21.25;100.00
33554;BME280;19885;42.208;24.952;2023-06-26T03:54:39;99326.88;;;21.04;100.00
33554;BME280;19885;42.208;24.952;2023-06-26T03:57:07;99325.25;;;21.00;100.00
33554;BME280;19885;42.208;24.952;2023-06-26T03:59:32;99324.66;;;20.94;100.00
33554;BME280;19885;42.208;24.952;2023-06-26T04:02:00;99329.03;;;20.95;100.00
33554;BME280;19885;42.208;24.952;2023-06-26T04:04:28;99330.75;;;20.96;100.00
33554;BME280;19885;42.208;24.952;2023-06-26T04:06:54;99333.91;;;21.05;100.00
33554;BME280;19885;42.208;24.952;2023-06-26T04:09:20;99332.50;;;21.36;100.00
33554;BME280;19885;42.208;24.952;2023-06-26T04:11:45;99337.69;;;21.39;100.00
33554;BME280;19885;42.208;24.952;2023-06-26T04:14:10;99343.22;;;21.90;100.00
33554;BME280;19885;42.208;24.952;2023-06-26T04:16:36;99342.06;;;22.14;100.00
33554;BME280;19885;42.208;24.952;2023-06-26T04:19:02;99346.72;;;21.72;100.00
33554;BME280;19885;42.208;24.952;2023-06-26T04:21:29;99341.28;;;21.75;100.00
33554;BME280;19885;42.208;24.952;2023-06-26T04:23:54;99338.44;;;21.98;100.00
33554;BME280;19885;42.208;24.952;2023-06-26T04:26:19;99327.53;;;21.67;100.00
33554;BME280;19885;42.208;24.952;2023-06-26T04:28:48;99335.81;;;22.15;100.00
33554;BME280;19885;42.208;24.952;2023-06-26T04:31:13;99326.31;;;21.92;100.00
33554;BME280;19885;42.208;24.952;2023-06-26T04:33:38;99328.25;;;22.08;100.00
33554;BME280;19885;42.208;24.952;2023-06-26T04:36:07;99321.47;;;22.19;100.00
33554;BME280;19885;42.208;24.952;2023-06-26T04:38:32;99330.00;;;22.26;100.00
33554;BME280;19885;42.208;24.952;2023-06-26T04:40:58;99329.41;;;21.83;100.00
33554;BME280;19885;42.208;24.952;2023-06-26T04:43:23;99336.53;;;21.63;100.00
33554;BME280;19885;42.208;24.952;2023-06-26T04:45:49;99332.09;;;21.45;100.00
33554;BME280;19885;42.208;24.952;2023-06-26T04:48:14;99336.91;;;21.37;100.00
33554;BME280;19885;42.208;24.952;2023-06-26T04:50:39;99339.50;;;21.18;100.00
33554;BME280;19885;42.208;24.952;2023-06-26T04:53:08;99351.25;;;21.12;100.00
33554;BME280;19885;42.208;24.952;2023-06-26T04:55:36;99352.69;;;21.19;100.00
33554;BME280;19885;42.208;24.952;2023-06-26T04:58:02;99346.84;;;21.31;100.00
33554;BME280;19885;42.208;24.952;2023-06-26T05:00:29;99361.91;;;21.50;100.00
33554;BME280;19885;42.208;24.952;2023-06-26T05:02:55;99362.16;;;21.64;100.00
33554;BME280;19885;42.208;24.952;2023-06-26T05:05:24;99363.44;;;21.74;100.00
33554;BME280;19885;42.208;24.952;2023-06-26T05:07:49;99365.41;;;21.89;100.00
33554;BME280;19885;42.208;24.952;2023-06-26T05:10:14;99377.28;;;21.99;100.00
33554;BME280;19885;42.208;24.952;2023-06-26T05:12:39;99374.28;;;22.07;100.00
33554;BME280;19885;42.208;24.952;2023-06-26T05:15:05;99372.75;;;22.20;100.00
33554;BME280;19885;42.208;24.952;2023-06-26T05:17:30;99375.97;;;22.26;100.00
33554;BME280;19885;42.208;24.952;2023-06-26T05:20:00;99374.81;;;22.32;100.00
33554;BME280;19885;42.208;24.952;2023-06-26T05:22:26;99377.38;;;22.33;100.00
33554;BME280;19885;42.208;24.952;2023-06-26T05:24:53;99373.72;;;22.36;100.00
33554;BME280;19885;42.208;24.952;2023-06-26T05:27:19;99377.25;;;22.36;100.00
33554;BME280;19885;42.208;24.952;2023-06-26T05:29:47;99380.38;;;22.44;100.00
33554;BME280;19885;42.208;24.952;2023-06-26T05:32:14;99378.22;;;22.52;100.00
33554;BME280;19885;42.208;24.952;2023-06-26T05:34:42;99377.78;;;22.61;100.00
33554;BME280;19885;42.208;24.952;2023-06-26T05:37:08;99383.75;;;22.84;100.00
33554;BME280;19885;42.208;24.952;2023-06-26T05:39:36;99375.59;;;23.04;99.99
33554;BME280;19885;42.208;24.952;2023-06-26T05:42:08;99374.44;;;23.09;99.45
33554;BME280;19885;42.208;24.952;2023-06-26T05:44:33;99382.31;;;23.11;98.22
33554;BME280;19885;42.208;24.952;2023-06-26T05:46:58;99380.19;;;23.17;98.09
33554;BME280;19885;42.208;24.952;2023-06-26T05:49:26;99381.16;;;23.16;98.98
33554;BME280;19885;42.208;24.952;2023-06-26T05:51:52;99380.91;;;23.21;98.45
33554;BME280;19885;42.208;24.952;2023-06-26T05:54:17;99378.88;;;23.43;96.56
33554;BME280;19885;42.208;24.952;2023-06-26T05:56:43;99377.50;;;23.52;95.94
33554;BME280;19885;42.208;24.952;2023-06-26T05:59:08;99379.78;;;23.42;95.71
33554;BME280;19885;42.208;24.952;2023-06-26T06:01:34;99377.38;;;23.37;95.52
33554;BME280;19885;42.208;24.952;2023-06-26T06:04:00;99381.00;;;23.36;97.15
33554;BME280;19885;42.208;24.952;2023-06-26T06:06:28;99376.53;;;23.37;97.60
33554;BME280;19885;42.208;24.952;2023-06-26T06:08:56;99376.13;;;23.45;96.31
33554;BME280;19885;42.208;24.952;2023-06-26T06:11:21;99385.94;;;23.60;96.35
33554;BME280;19885;42.208;24.952;2023-06-26T06:13:49;99388.53;;;23.61;95.38
33554;BME280;19885;42.208;24.952;2023-06-26T06:16:17;99389.75;;;23.71;97.04
33554;BME280;19885;42.208;24.952;2023-06-26T06:18:42;99388.19;;;23.67;96.62
33554;BME280;19885;42.208;24.952;2023-06-26T06:21:08;99387.25;;;23.68;97.15
33554;BME280;19885;42.208;24.952;2023-06-26T06:23:36;99387.88;;;23.73;95.59
33554;BME280;19885;42.208;24.952;2023-06-26T06:26:04;99387.88;;;23.73;98.08
33554;BME280;19885;42.208;24.952;2023-06-26T06:28:29;99385.44;;;23.69;97.63
33554;BME280;19885;42.208;24.952;2023-06-26T06:30:54;99395.22;;;23.68;95.69
33554;BME280;19885;42.208;24.952;2023-06-26T06:33:22;99388.88;;;23.71;96.09
33554;BME280;19885;42.208;24.952;2023-06-26T06:35:47;99389.81;;;23.70;95.75
33554;BME280;19885;42.208;24.952;2023-06-26T06:38:13;99394.47;;;23.66;96.44
33554;BME280;19885;42.208;24.952;2023-06-26T06:40:38;99394.47;;;23.66;97.56
33554;BME280;19885;42.208;24.952;2023-06-26T06:43:07;99404.72;;;23.57;93.26
33554;BME280;19885;42.208;24.952;2023-06-26T06:45:32;99400.19;;;23.59;95.01
33554;BME280;19885;42.208;24.952;2023-06-26T06:47:57;99394.97;;;23.57;96.33
33554;BME280;19885;42.208;24.952;2023-06-26T06:50:23;99402.75;;;23.60;94.09
33554;BME280;19885;42.208;24.952;2023-06-26T06:52:48;99403.38;;;23.65;96.25
33554;BME280;19885;42.208;24.952;2023-06-26T06:55:13;99388.78;;;23.72;98.46
33554;BME280;19885;42.208;24.952;2023-06-26T06:57:39;99387.53;;;23.79;96.24
33554;BME280;19885;42.208;24.952;2023-06-26T07:00:09;99390.44;;;23.90;96.74
33554;BME280;19885;42.208;24.952;2023-06-26T07:02:35;99392.84;;;23.95;95.74
33554;BME280;19885;42.208;24.952;2023-06-26T07:05:01;99397.00;;;24.00;91.05
33554;BME280;19885;42.208;24.952;2023-06-26T07:07:28;99391.88;;;24.13;92.16
33554;BME280;19885;42.208;24.952;2023-06-26T07:09:53;99391.28;;;24.24;90.14
33554;BME280;19885;42.208;24.952;2023-06-26T07:12:18;99393.50;;;24.31;88.51
33554;BME280;19885;42.208;24.952;2023-06-26T07:14:46;99400.28;;;24.37;89.29
33554;BME280;19885;42.208;24.952;2023-06-26T07:17:13;99407.41;;;24.52;89.58
33554;BME280;19885;42.208;24.952;2023-06-26T07:19:38;99392.25;;;24.68;87.07
33554;BME280;19885;42.208;24.952;2023-06-26T07:22:04;99399.97;;;24.72;87.47
33554;BME280;19885;42.208;24.952;2023-06-26T07:24:29;99396.03;;;25.09;85.93
33554;BME280;19885;42.208;24.952;2023-06-26T07:26:59;99396.19;;;25.06;86.52
33554;BME280;19885;42.208;24.952;2023-06-26T07:29:28;99404.03;;;24.64;89.27
33554;BME280;19885;42.208;24.952;2023-06-26T07:31:54;99401.38;;;24.64;87.90
33554;BME280;19885;42.208;24.952;2023-06-26T07:34:21;99399.47;;;24.66;87.36
33554;BME280;19885;42.208;24.952;2023-06-26T07:36:49;99400.09;;;24.55;90.33
33554;BME280;19885;42.208;24.952;2023-06-26T07:39:17;99398.97;;;24.59;90.67
33554;BME280;19885;42.208;24.952;2023-06-26T07:41:42;99404.94;;;24.94;86.68
33554;BME280;19885;42.208;24.952;2023-06-26T07:44:07;99405.03;;;25.36;84.36
33554;BME280;19885;42.208;24.952;2023-06-26T07:46:32;99410.53;;;25.33;81.76
33554;BME280;19885;42.208;24.952;2023-06-26T07:48:58;99404.88;;;25.68;80.79
33554;BME280;19885;42.208;24.952;2023-06-26T07:51:23;99408.88;;;25.89;80.30
33554;BME280;19885;42.208;24.952;2023-06-26T07:53:49;99405.91;;;25.51;79.49
33554;BME280;19885;42.208;24.952;2023-06-26T07:56:14;99406.78;;;25.80;80.75
33554;BME280;19885;42.208;24.952;2023-06-26T07:58:39;99410.00;;;25.99;82.73
33554;BME280;19885;42.208;24.952;2023-06-26T08:01:04;99405.25;;;25.90;82.13
33554;BME280;19885;42.208;24.952;2023-06-26T08:03:30;99411.84;;;25.56;74.84
33554;BME280;19885;42.208;24.952;2023-06-26T08:05:55;99412.69;;;26.13;76.82
33554;BME280;19885;42.208;24.952;2023-06-26T08:08:20;99409.41;;;26.36;75.05
33554;BME280;19885;42.208;24.952;2023-06-26T08:10:46;99411.84;;;25.98;74.47
33554;BME280;19885;42.208;24.952;2023-06-26T08:13:14;99414.97;;;25.63;77.75
33554;BME280;19885;42.208;24.952;2023-06-26T08:15:39;99408.69;;;25.49;78.26
33554;BME280;19885;42.208;24.952;2023-06-26T08:18:07;99409.09;;;25.58;74.10
33554;BME280;19885;42.208;24.952;2023-06-26T08:20:32;99404.88;;;25.82;76.72
33554;BME280;19885;42.208;24.952;2023-06-26T08:22:57;99399.91;;;25.90;74.92
33554;BME280;19885;42.208;24.952;2023-06-26T08:25:23;99410.28;;;26.08;74.72
33554;BME280;19885;42.208;24.952;2023-06-26T08:27:50;99410.13;;;25.83;71.75
33554;BME280;19885;42.208;24.952;2023-06-26T08:30:17;99396.88;;;26.10;72.11
33554;BME280;19885;42.208;24.952;2023-06-26T08:32:43;99407.34;;;26.13;75.40
33554;BME280;19885;42.208;24.952;2023-06-26T08:35:10;99403.53;;;26.03;71.91
33554;BME280;19885;42.208;24.952;2023-06-26T08:37:36;99403.94;;;25.83;77.06
33554;BME280;19885;42.208;24.952;2023-06-26T08:40:01;99406.56;;;25.97;75.05
33554;BME280;19885;42.208;24.952;2023-06-26T08:42:29;99393.97;;;26.27;74.27
33554;BME280;19885;42.208;24.952;2023-06-26T08:45:00;99399.31;;;26.54;75.30
33554;BME280;19885;42.208;24.952;2023-06-26T08:47:30;99390.63;;;26.24;72.37
33554;BME280;19885;42.208;24.952;2023-06-26T08:50:10;99387.41;;;26.45;74.17
33554;BME280;19885;42.208;24.952;2023-06-26T08:52:42;99385.69;;;26.44;73.97
33554;BME280;19885;42.208;24.952;2023-06-26T08:55:09;99387.34;;;26.86;77.83
33554;BME280;19885;42.208;24.952;2023-06-26T08:57:36;99394.31;;;26.88;72.84
33554;BME280;19885;42.208;24.952;2023-06-26T09:00:02;99386.72;;;26.82;71.22
33554;BME280;19885;42.208;24.952;2023-06-26T09:02:29;99382.06;;;26.99;70.89
33554;BME280;19885;42.208;24.952;2023-06-26T09:04:55;99373.72;;;27.28;74.21
33554;BME280;19885;42.208;24.952;2023-06-26T09:07:21;99381.44;;;27.08;71.55
33554;BME280;19885;42.208;24.952;2023-06-26T09:09:46;99372.25;;;27.49;74.53
33554;BME280;19885;42.208;24.952;2023-06-26T09:12:12;99374.03;;;27.74;70.65
33554;BME280;19885;42.208;24.952;2023-06-26T09:14:38;99374.88;;;28.00;72.53
33554;BME280;19885;42.208;24.952;2023-06-26T09:17:03;99374.34;;;28.07;67.63
33554;BME280;19885;42.208;24.952;2023-06-26T09:19:29;99371.28;;;28.24;70.68
33554;BME280;19885;42.208;24.952;2023-06-26T09:21:54;99367.88;;;27.97;69.25
33554;BME280;19885;42.208;24.952;2023-06-26T09:24:22;99373.41;;;27.58;66.26
33554;BME280;19885;42.208;24.952;2023-06-26T09:26:48;99372.16;;;27.38;66.62
33554;BME280;19885;42.208;24.952;2023-06-26T09:29:14;99365.47;;;27.69;69.51
33554;BME280;19885;42.208;24.952;2023-06-26T09:31:40;99366.00;;;27.74;64.76
33554;BME280;19885;42.208;24.952;2023-06-26T09:34:05;99367.38;;;28.05;65.21
33554;BME280;19885;42.208;24.952;2023-06-26T09:36:31;99369.41;;;28.01;68.15
33554;BME280;19885;42.208;24.952;2023-06-26T09:39:05;99365.00;;;28.37;67.58
33554;BME280;19885;42.208;24.952;2023-06-26T09:41:37;99366.13;;;28.21;66.80
33554;BME280;19885;42.208;24.952;2023-06-26T09:44:05;99369.53;;;28.00;72.22
33554;BME280;19885;42.208;24.952;2023-06-26T09:46:31;99362.44;;;27.86;65.18
33554;BME280;19885;42.208;24.952;2023-06-26T09:51:24;99364.16;;;28.00;66.22
33554;BME280;19885;42.208;24.952;2023-06-26T09:53:50;99358.44;;;28.41;69.85
33554;BME280;19885;42.208;24.952;2023-06-26T09:56:17;99353.94;;;28.65;72.43
33554;BME280;19885;42.208;24.952;2023-06-26T09:58:43;99362.13;;;28.98;68.61
33554;BME280;19885;42.208;24.952;2023-06-26T10:01:08;99363.13;;;29.08;67.58
33554;BME280;19885;42.208;24.952;2023-06-26T10:03:34;99355.78;;;29.10;66.22
33554;BME280;19885;42.208;24.952;2023-06-26T10:06:00;99357.22;;;29.27;63.71
33554;BME280;19885;42.208;24.952;2023-06-26T10:08:28;99356.84;;;29.20;69.10
33554;BME280;19885;42.208;24.952;2023-06-26T10:10:54;99359.69;;;28.71;65.44
33554;BME280;19885;42.208;24.952;2023-06-26T10:13:25;99361.91;;;27.94;67.85
33554;BME280;19885;42.208;24.952;2023-06-26T10:15:52;99366.69;;;27.52;78.06
33554;BME280;19885;42.208;24.952;2023-06-26T10:18:18;99374.38;;;26.27;85.71
33554;BME280;19885;42.208;24.952;2023-06-26T10:20:47;99363.50;;;23.96;98.93
33554;BME280;19885;42.208;24.952;2023-06-26T10:23:13;99376.41;;;22.72;100.00
33554;BME280;19885;42.208;24.952;2023-06-26T10:25:40;99381.78;;;23.04;100.00
33554;BME280;19885;42.208;24.952;2023-06-26T10:28:07;99373.88;;;23.37;100.00
33554;BME280;19885;42.208;24.952;2023-06-26T10:30:33;99364.44;;;23.47;100.00
33554;BME280;19885;42.208;24.952;2023-06-26T10:33:01;99365.06;;;23.52;100.00
33554;BME280;19885;42.208;24.952;2023-06-26T10:35:28;99357.97;;;23.68;100.00
33554;BME280;19885;42.208;24.952;2023-06-26T10:38:00;99371.38;;;23.82;100.00
33554;BME280;19885;42.208;24.952;2023-06-26T10:40:28;99366.75;;;24.01;100.00
33554;BME280;19885;42.208;24.952;2023-06-26T10:43:08;99364.38;;;24.13;100.00
33554;BME280;19885;42.208;24.952;2023-06-26T10:45:33;99364.56;;;24.09;100.00
33554;BME280;19885;42.208;24.952;2023-06-26T10:48:01;99367.63;;;24.33;100.00
33554;BME280;19885;42.208;24.952;2023-06-26T10:50:28;99368.16;;;24.69;100.00
33554;BME280;19885;42.208;24.952;2023-06-26T10:56:03;99358.59;;;25.25;100.00
33554;BME280;19885;42.208;24.952;2023-06-26T11:01:22;99360.81;;;25.32;97.77
33554;BME280;19885;42.208;24.952;2023-06-26T11:04:03;99363.84;;;25.12;94.69
33554;BME280;19885;42.208;24.952;2023-06-26T11:06:29;99352.78;;;25.18;94.25
33554;BME280;19885;42.208;24.952;2023-06-26T11:09:01;99344.38;;;25.10;95.38
33554;BME280;19885;42.208;24.952;2023-06-26T11:14:20;99334.69;;;25.23;96.00
33554;BME280;19885;42.208;24.952;2023-06-26T11:16:46;99341.63;;;25.40;100.00
33554;BME280;19885;42.208;24.952;2023-06-26T11:19:15;99351.88;;;25.62;98.19
33554;BME280;19885;42.208;24.952;2023-06-26T11:21:46;99347.69;;;25.58;98.64
33554;BME280;19885;42.208;24.952;2023-06-26T11:24:12;99356.25;;;25.77;100.00
33554;BME280;19885;42.208;24.952;2023-06-26T11:26:42;99362.84;;;25.43;100.00
33554;BME280;19885;42.208;24.952;2023-06-26T11:29:07;99363.47;;;24.59;100.00
33554;BME280;19885;42.208;24.952;2023-06-26T11:31:34;99362.06;;;24.06;100.00
33554;BME280;19885;42.208;24.952;2023-06-26T11:34:00;99362.25;;;23.55;100.00
33554;BME280;19885;42.208;24.952;2023-06-26T11:36:28;99362.06;;;23.25;100.00
33554;BME280;19885;42.208;24.952;2023-06-26T11:38:55;99347.22;;;23.70;100.00
33554;BME280;19885;42.208;24.952;2023-06-26T11:41:20;99336.53;;;24.02;100.00
33554;BME280;19885;42.208;24.952;2023-06-26T11:43:46;99338.06;;;24.22;100.00
33554;BME280;19885;42.208;24.952;2023-06-26T11:46:11;99339.44;;;24.29;100.00
33554;BME280;19885;42.208;24.952;2023-06-26T11:48:37;99344.19;;;24.54;100.00
33554;BME280;19885;42.208;24.952;2023-06-26T11:51:04;99349.06;;;24.32;100.00
33554;BME280;19885;42.208;24.952;2023-06-26T11:53:29;99346.47;;;23.99;100.00
33554;BME280;19885;42.208;24.952;2023-06-26T11:55:55;99355.84;;;23.90;100.00
33554;BME280;19885;42.208;24.952;2023-06-26T11:58:22;99348.75;;;24.52;100.00
33554;BME280;19885;42.208;24.952;2023-06-26T12:00:50;99359.47;;;24.82;100.00
33554;BME280;19885;42.208;24.952;2023-06-26T12:03:16;99359.03;;;24.44;100.00
33554;BME280;19885;42.208;24.952;2023-06-26T12:05:41;99363.28;;;24.62;100.00
33554;BME280;19885;42.208;24.952;2023-06-26T12:08:10;99363.06;;;24.51;100.00
33554;BME280;19885;42.208;24.952;2023-06-26T12:10:35;99361.97;;;24.24;100.00
33554;BME280;19885;42.208;24.952;2023-06-26T12:13:00;99373.19;;;24.44;100.00
33554;BME280;19885;42.208;24.952;2023-06-26T12:15:26;99369.16;;;24.53;100.00
33554;BME280;19885;42.208;24.952;2023-06-26T12:17:53;99363.28;;;24.62;100.00
33554;BME280;19885;42.208;24.952;2023-06-26T12:20:21;99365.78;;;24.49;100.00
33554;BME280;19885;42.208;24.952;2023-06-26T12:22:47;99373.94;;;24.62;100.00
33554;BME280;19885;42.208;24.952;2023-06-26T12:25:13;99371.63;;;24.56;100.00
33554;BME280;19885;42.208;24.952;2023-06-26T12:27:38;99371.28;;;24.62;100.00
33554;BME280;19885;42.208;24.952;2023-06-26T12:30:04;99376.50;;;24.79;100.00
33554;BME280;19885;42.208;24.952;2023-06-26T12:32:34;99381.72;;;24.96;100.00
33554;BME280;19885;42.208;24.952;2023-06-26T12:34:59;99396.13;;;25.08;100.00
33554;BME280;19885;42.208;24.952;2023-06-26T12:37:25;99387.75;;;25.14;100.00
33554;BME280;19885;42.208;24.952;2023-06-26T12:39:54;99393.75;;;25.17;100.00
33554;BME280;19885;42.208;24.952;2023-06-26T12:42:24;99397.94;;;25.07;100.00
33554;BME280;19885;42.208;24.952;2023-06-26T12:44:50;99395.56;;;25.31;100.00
33554;BME280;19885;42.208;24.952;2023-06-26T12:47:16;99394.59;;;25.18;100.00
33554;BME280;19885;42.208;24.952;2023-06-26T12:49:43;99396.38;;;25.47;100.00
33554;BME280;19885;42.208;24.952;2023-06-26T12:52:09;99389.25;;;25.62;100.00
33554;BME280;19885;42.208;24.952;2023-06-26T12:54:35;99399.72;;;25.65;100.00
33554;BME280;19885;42.208;24.952;2023-06-26T12:57:01;99406.97;;;25.77;100.00
33554;BME280;19885;42.208;24.952;2023-06-26T12:59:26;99405.75;;;25.68;100.00